Strona główna
METAR-TAF:

METAR-TAF

Lotnisko :

Topcliffe, Anglia

Szerokość geograficzna: 54-12N, Długość geograficzna: 001-23W, wysokość: 28 m

Aktualna obserwacja pogody

Raport powstał 34 minut temu, godzina 01:50 UTC
Wiatr 25 kt od zachodnio-południowy zachód w porywach dochodzący do 42 kt
Temperatura 7°C
Wilgotność 61%
Ciśnienie 992 hPa
Widzialność 10 km lub więcej

METAR: EGXZ 170150Z AUTO 24025G42KT 9999 BKN041/// BKN050/// 07/00 Q0992

czas: 02:24 (02:24 UTC)


TAF: brakujący

Obserwacja i prognoza pogody dla ponad 4000 lotnisk (raport METAR i TAF).

Dostępne stacje oznaczono żółtymi i czerwonymi punktami na mapie.

Najedź kursorem aby zobaczyć nazwę stacji.

Kliknij aby zobaczyć obserwacje i prognozy pogody.

Aby zmienić mapę: kliknij na zielony przycisk z czarnym krzyżykiem, aby powiększyć; na zielony przycisk z myślnikiem, aby pomniejszyć; na zielone strzałki, aby przejść do map sąsiednich.


METAR-TAF: